New Jersey Trader — 9HA4050 — position and weather

sailwx.info

Track history (hours):
 
Tides and Currents Weather Stations Pressure Air Temp Water Temp Dewpoint Dewpoint Depression Visibility Wind Speed Wind Dir Waves Ship Positions

New Jersey Trader

Last reported at 2018-Jun-22 00:56 UTC. Time now 2018-Jun-24 20:30 UTC.
Position N 36°32' E 014°56'.

Length 212 m; draft 11.4 m.

Type: Ship (hazmat cat D). MMSI: 256976000.

Date/timePositionNaut miles runAvg speedWind from/ knotsBaromVisibWave heightAir tempDewpointWater temp
2018-Jun-22 00:56N 36°32' E 014°56'716.0
2018-Jun-22 00:29N 36°35' E 014°48'815.8
2018-Jun-22 00:00N 36°38' E 014°39'815.6
2018-Jun-21 23:30N 36°42' E 014°30'714.7
2018-Jun-21 23:00N 36°45' E 014°22'815.1
2018-Jun-21 22:30N 36°48' E 014°14'815.7
2018-Jun-21 22:00N 36°52' E 014°05'815.6
2018-Jun-21 21:30N 36°56' E 013°57'815.6
2018-Jun-21 21:00N 36°60' E 013°48'  
2018-Jun-19 04:35N 39°26' E 011°08'5018.4
2018-Jun-19 01:51N 39°45' E 012°09'618.1
2018-Jun-19 01:30N 39°47' E 012°16'918.2
2018-Jun-19 01:00N 39°51' E 012°27'1018.1
2018-Jun-19 00:28N 39°54' E 012°39'818.2
2018-Jun-19 00:00N 39°57' E 012°49'918.1
2018-Jun-18 23:30N 40°01' E 013°00'918.1
2018-Jun-18 23:00N 40°04' E 013°11'3218.2
2018-Jun-18 21:14N 40°17' E 013°50'418.3
2018-Jun-18 21:00N 40°18' E 013°55'918.3
2018-Jun-18 20:30N 40°22' E 014°06'918.3
2018-Jun-18 20:00N 40°25' E 014°17'918.2
2018-Jun-18 19:30N 40°30' E 014°28'918.4
2018-Jun-18 19:00N 40°35' E 014°38'3 0.1
2018-Jun-17 03:52N 40°37' E 014°41'2 5.6
2018-Jun-17 03:30N 40°36' E 014°39'611.0
2018-Jun-17 03:00N 40°33' E 014°33'611.1
2018-Jun-17 02:30N 40°30' E 014°27'611.2
2018-Jun-17 02:00N 40°26' E 014°21'510.5
2018-Jun-17 01:30N 40°26' E 014°14'510.7
2018-Jun-17 01:00N 40°26' E 014°07'710.4
2018-Jun-17 00:21N 40°27' E 013°58'410.8
2018-Jun-17 00:00N 40°28' E 013°54'510.9
2018-Jun-16 23:30N 40°30' E 013°47'1610.9
2018-Jun-16 22:02N 40°37' E 013°28'010.7
2018-Jun-16 22:00N 40°37' E 013°28'610.8
2018-Jun-16 21:26N 40°40' E 013°20'510.9
2018-Jun-16 21:00N 40°42' E 013°15'510.9
2018-Jun-16 20:30N 40°44' E 013°08'510.9
2018-Jun-16 20:00N 40°46' E 013°02'610.8
2018-Jun-16 19:29N 40°48' E 012°55'1710.4
2018-Jun-16 17:48N 40°59' E 012°37'311.2
2018-Jun-16 17:30N 41°02' E 012°35'117 3.0
2018-Jun-15 02:40N 42°22' E 010°39'210.2
2018-Jun-15 02:30N 42°23' E 010°37'510.1
2018-Jun-15 01:58N 42°26' E 010°32'610.1
2018-Jun-15 01:25N 42°30' E 010°26'4 9.9
2018-Jun-15 01:00N 42°32' E 010°22'510.1
2018-Jun-15 00:30N 42°35' E 010°16'710.0
2018-Jun-14 23:47N 42°39' E 010°08'3 9.8
2018-Jun-14 23:30N 42°41' E 010°05'5 9.3
2018-Jun-14 23:00N 42°45' E 010°01'510.2
2018-Jun-14 22:30N 42°50' E 010°00'510.1
2018-Jun-14 22:00N 42°55' E 010°01'510.2
2018-Jun-14 21:30N 42°60' E 010°02'510.1
2018-Jun-14 21:00N 43°05' E 010°04'510.1
2018-Jun-14 20:30N 43°10' E 010°05'510.1
2018-Jun-14 20:00N 43°14' E 010°07'510.0
2018-Jun-14 19:30N 43°19' E 010°08'510.1
2018-Jun-14 19:00N 43°24' E 010°09'510.0
2018-Jun-14 18:31N 43°29' E 010°10'5 9.8
2018-Jun-14 18:00N 43°32' E 010°16'3 5.7
2018-Jun-14 17:30N 43°34' E 010°18'0 0.9
2018-Jun-14 17:00N 43°34' E 010°18'0 0.0
2018-Jun-14 16:30N 43°34' E 010°18'0 0.0
2018-Jun-14 16:00N 43°34' E 010°18'0 0.0
2018-Jun-14 15:24N 43°34' E 010°18'0 0.0
2018-Jun-14 15:00N 43°34' E 010°18'0 0.0
2018-Jun-14 14:30N 43°34' E 010°18'0 0.0
2018-Jun-14 14:00N 43°34' E 010°18'0 0.0
2018-Jun-14 13:24N 43°34' E 010°18'0 0.0
2018-Jun-14 12:54N 43°34' E 010°18'0 0.0
2018-Jun-14 12:30N 43°34' E 010°18'0 0.0
2018-Jun-14 11:54N 43°34' E 010°18'0 0.0
2018-Jun-14 11:30N 43°34' E 010°18'0 0.0
2018-Jun-14 11:00N 43°34' E 010°18'0 0.0
2018-Jun-14 10:30N 43°34' E 010°18'0 0.0
2018-Jun-14 10:00N 43°34' E 010°18'0 0.0
2018-Jun-14 09:30N 43°34' E 010°18'0 0.0
2018-Jun-14 09:00N 43°34' E 010°18'0 0.0
2018-Jun-14 08:30N 43°34' E 010°18'0 0.0
2018-Jun-14 08:00N 43°34' E 010°18'0 0.0
2018-Jun-14 07:30N 43°34' E 010°18'0 0.0
2018-Jun-14 07:00N 43°34' E 010°18'0 0.0
2018-Jun-14 06:30N 43°34' E 010°18'0 0.0
2018-Jun-14 06:00N 43°34' E 010°18'0 0.0
2018-Jun-14 05:30N 43°34' E 010°18'0 0.0
2018-Jun-14 04:54N 43°34' E 010°18'0 0.0
2018-Jun-14 04:30N 43°34' E 010°18'0 0.0
2018-Jun-14 04:00N 43°34' E 010°18'0 0.0
2018-Jun-14 03:24N 43°34' E 010°18'0 0.0
2018-Jun-14 03:00N 43°34' E 010°18'0 0.0
2018-Jun-14 02:28N 43°34' E 010°18'0 0.0
2018-Jun-14 01:58N 43°34' E 010°18'0 0.0
2018-Jun-14 01:28N 43°34' E 010°18'0 0.0
2018-Jun-14 00:58N 43°34' E 010°18'0 0.0
2018-Jun-14 00:28N 43°34' E 010°18'0 0.0
2018-Jun-13 23:58N 43°34' E 010°18'0 0.0
2018-Jun-13 23:28N 43°34' E 010°18'0 0.0
2018-Jun-13 22:58N 43°34' E 010°18'0 0.0
2018-Jun-13 22:28N 43°34' E 010°18'0 0.0
2018-Jun-13 21:58N 43°34' E 010°18'0 0.0
2018-Jun-13 21:28N 43°34' E 010°18'0 0.0
2018-Jun-13 21:00N 43°34' E 010°18'2 3.1
2018-Jun-13 20:30N 43°33' E 010°18'3 6.3
2018-Jun-13 20:00N 43°31' E 010°15'3 6.9
2018-Jun-13 19:30N 43°28' E 010°11'510.6
2018-Jun-13 19:00N 43°24' E 010°06'510.8
2018-Jun-13 18:30N 43°20' E 010°02'510.6
2018-Jun-13 18:00N 43°19' E 009°55'611.5
2018-Jun-13 17:30N 43°19' E 009°47'611.7
2018-Jun-13 17:00N 43°23' E 009°41'611.8
2018-Jun-13 16:30N 43°28' E 009°36'611.6
2018-Jun-13 16:00N 43°32' E 009°30'611.5
2018-Jun-13 15:30N 43°36' E 009°25'611.4
2018-Jun-13 15:00N 43°41' E 009°21'611.1
2018-Jun-13 14:30N 43°45' E 009°16'611.2
2018-Jun-13 14:00N 43°50' E 009°12'611.6
2018-Jun-13 13:30N 43°55' E 009°07'611.5
2018-Jun-13 13:00N 43°59' E 009°02'611.4
2018-Jun-13 12:30N 44°04' E 008°57'611.1
2018-Jun-13 12:00N 44°08' E 008°53'510.9
2018-Jun-13 11:30N 44°13' E 008°49'611.1
2018-Jun-13 11:00N 44°17' E 008°44'5 9.8
2018-Jun-13 10:30N 44°22' E 008°42'4 8.6
2018-Jun-13 10:00N 44°25' E 008°47'0 0.3
2018-Jun-13 09:25N 44°25' E 008°47'0 0.0
2018-Jun-13 08:55N 44°25' E 008°47'0 0.0
2018-Jun-13 08:19N 44°25' E 008°47'0 0.0
2018-Jun-13 07:55N 44°25' E 008°47'0 0.0
2018-Jun-13 07:25N 44°25' E 008°47'0 0.0
2018-Jun-13 06:55N 44°25' E 008°47'0 0.0
2018-Jun-13 06:25N 44°25' E 008°47'0 0.0
2018-Jun-13 05:55N 44°25' E 008°47'0 0.0
2018-Jun-13 05:25N 44°25' E 008°47'0 0.0
2018-Jun-13 04:55N 44°25' E 008°47'0 0.0
2018-Jun-13 04:25N 44°25' E 008°47'0 0.0
2018-Jun-13 03:55N 44°25' E 008°47'0 0.0
2018-Jun-13 03:25N 44°25' E 008°47'0 0.0
2018-Jun-13 02:55N 44°25' E 008°47'0 0.0
2018-Jun-13 02:25N 44°25' E 008°47'0 0.0
2018-Jun-13 01:55N 44°25' E 008°47'0 0.0
2018-Jun-13 01:25N 44°25' E 008°47'0 0.0
2018-Jun-13 00:55N 44°25' E 008°47'0 0.0
2018-Jun-13 00:25N 44°25' E 008°47'0 0.0
2018-Jun-12 23:55N 44°25' E 008°47'0 0.0
2018-Jun-12 23:19N 44°25' E 008°47'0 0.0
2018-Jun-12 22:49N 44°25' E 008°47'0 0.0
2018-Jun-12 22:25N 44°25' E 008°47'0 0.0
2018-Jun-12 21:55N 44°25' E 008°47'0 0.0
2018-Jun-12 21:25N 44°25' E 008°47'0 0.0
2018-Jun-12 20:55N 44°25' E 008°47'0 0.0
2018-Jun-12 20:25N 44°25' E 008°47'0 0.0
2018-Jun-12 19:55N 44°25' E 008°47'0 0.0
2018-Jun-12 19:25N 44°25' E 008°47'0 0.0
2018-Jun-12 18:55N 44°25' E 008°47'0 0.0
2018-Jun-12 18:25N 44°25' E 008°47'0 0.0
2018-Jun-12 17:55N 44°25' E 008°47'0 0.0
2018-Jun-12 17:25N 44°25' E 008°47'0 0.0
2018-Jun-12 16:55N 44°25' E 008°47'0 0.0
2018-Jun-12 16:25N 44°25' E 008°47'0 0.0
2018-Jun-12 15:55N 44°25' E 008°47'0 0.0
2018-Jun-12 15:29N 44°25' E 008°47'0 0.0
2018-Jun-12 14:55N 44°25' E 008°47'0 0.0
2018-Jun-12 14:25N 44°25' E 008°47'0 0.0
2018-Jun-12 13:55N 44°25' E 008°47'0 0.0
2018-Jun-12 13:25N 44°25' E 008°47'0 0.0
2018-Jun-12 12:55N 44°25' E 008°47'0 0.0
2018-Jun-12 12:25N 44°25' E 008°47'0 0.0
2018-Jun-12 11:55N 44°25' E 008°47'0 0.0
2018-Jun-12 11:25N 44°25' E 008°47'0 0.0
2018-Jun-12 10:55N 44°25' E 008°47'0 0.0
2018-Jun-12 10:28N 44°25' E 008°47'0 0.0
2018-Jun-12 09:58N 44°25' E 008°47'0 0.0
2018-Jun-12 09:28N 44°25' E 008°47'0 0.1
2018-Jun-12 09:00N 44°25' E 008°47'1 2.7
2018-Jun-12 08:30N 44°25' E 008°45'1 1.1
2018-Jun-12 07:57N 44°24' E 008°45'0 0.0
2018-Jun-12 07:27N 44°24' E 008°45'0 0.1
2018-Jun-12 06:57N 44°24' E 008°45'0 0.0
2018-Jun-12 06:27N 44°24' E 008°45'0 0.0
2018-Jun-12 05:57N 44°24' E 008°45'0 0.0
2018-Jun-12 05:21N 44°24' E 008°45'0 0.0
2018-Jun-12 04:51N 44°24' E 008°45'0 0.0
2018-Jun-12 04:27N 44°24' E 008°45'0 0.0
2018-Jun-12 03:57N 44°24' E 008°45'0 0.2
2018-Jun-12 03:27N 44°24' E 008°46'0 0.2
2018-Jun-12 02:57N 44°24' E 008°46'0 0.1
2018-Jun-12 02:27N 44°24' E 008°46'0 0.0
2018-Jun-12 01:57N 44°24' E 008°46'0 0.0
2018-Jun-12 01:27N 44°24' E 008°46'0 0.0
2018-Jun-12 00:57N 44°24' E 008°46'  
Track history (hours):
 
Tides and Currents Weather Stations Pressure Air Temp Water Temp Dewpoint Dewpoint Depression Visibility Wind Speed Wind Dir Waves Ship Positions

New Jersey Trader

Last reported at 2018-Jun-22 00:56 UTC. Time now 2018-Jun-24 20:30 UTC.
Position N 36°32' E 014°56'.

Length 212 m; draft 11.4 m.

Type: Ship (hazmat cat D). MMSI: 256976000.

Date/timePositionNaut miles runAvg speedWind from/ knotsBaromVisibWave heightAir tempDewpointWater temp
2018-Jun-22 00:56N 36°32' E 014°56'716.0
2018-Jun-22 00:29N 36°35' E 014°48'815.8
2018-Jun-22 00:00N 36°38' E 014°39'815.6
2018-Jun-21 23:30N 36°42' E 014°30'714.7
2018-Jun-21 23:00N 36°45' E 014°22'815.1
2018-Jun-21 22:30N 36°48' E 014°14'815.7
2018-Jun-21 22:00N 36°52' E 014°05'815.6
2018-Jun-21 21:30N 36°56' E 013°57'815.6
2018-Jun-21 21:00N 36°60' E 013°48'  
2018-Jun-19 04:35N 39°26' E 011°08'5018.4
2018-Jun-19 01:51N 39°45' E 012°09'618.1
2018-Jun-19 01:30N 39°47' E 012°16'918.2
2018-Jun-19 01:00N 39°51' E 012°27'1018.1
2018-Jun-19 00:28N 39°54' E 012°39'818.2
2018-Jun-19 00:00N 39°57' E 012°49'918.1
2018-Jun-18 23:30N 40°01' E 013°00'918.1
2018-Jun-18 23:00N 40°04' E 013°11'3218.2
2018-Jun-18 21:14N 40°17' E 013°50'418.3
2018-Jun-18 21:00N 40°18' E 013°55'918.3
2018-Jun-18 20:30N 40°22' E 014°06'918.3
2018-Jun-18 20:00N 40°25' E 014°17'918.2
2018-Jun-18 19:30N 40°30' E 014°28'918.4
2018-Jun-18 19:00N 40°35' E 014°38'3 0.1
2018-Jun-17 03:52N 40°37' E 014°41'2 5.6
2018-Jun-17 03:30N 40°36' E 014°39'611.0
2018-Jun-17 03:00N 40°33' E 014°33'611.1
2018-Jun-17 02:30N 40°30' E 014°27'611.2
2018-Jun-17 02:00N 40°26' E 014°21'510.5
2018-Jun-17 01:30N 40°26' E 014°14'510.7
2018-Jun-17 01:00N 40°26' E 014°07'710.4
2018-Jun-17 00:21N 40°27' E 013°58'410.8
2018-Jun-17 00:00N 40°28' E 013°54'510.9
2018-Jun-16 23:30N 40°30' E 013°47'1610.9
2018-Jun-16 22:02N 40°37' E 013°28'010.7
2018-Jun-16 22:00N 40°37' E 013°28'610.8
2018-Jun-16 21:26N 40°40' E 013°20'510.9
2018-Jun-16 21:00N 40°42' E 013°15'510.9
2018-Jun-16 20:30N 40°44' E 013°08'510.9
2018-Jun-16 20:00N 40°46' E 013°02'610.8
2018-Jun-16 19:29N 40°48' E 012°55'1710.4
2018-Jun-16 17:48N 40°59' E 012°37'311.2
2018-Jun-16 17:30N 41°02' E 012°35'117 3.0
2018-Jun-15 02:40N 42°22' E 010°39'210.2
2018-Jun-15 02:30N 42°23' E 010°37'510.1
2018-Jun-15 01:58N 42°26' E 010°32'610.1
2018-Jun-15 01:25N 42°30' E 010°26'4 9.9
2018-Jun-15 01:00N 42°32' E 010°22'510.1
2018-Jun-15 00:30N 42°35' E 010°16'710.0
2018-Jun-14 23:47N 42°39' E 010°08'3 9.8
2018-Jun-14 23:30N 42°41' E 010°05'5 9.3
2018-Jun-14 23:00N 42°45' E 010°01'510.2
2018-Jun-14 22:30N 42°50' E 010°00'510.1
2018-Jun-14 22:00N 42°55' E 010°01'510.2
2018-Jun-14 21:30N 42°60' E 010°02'510.1
2018-Jun-14 21:00N 43°05' E 010°04'510.1
2018-Jun-14 20:30N 43°10' E 010°05'510.1
2018-Jun-14 20:00N 43°14' E 010°07'510.0
2018-Jun-14 19:30N 43°19' E 010°08'510.1
2018-Jun-14 19:00N 43°24' E 010°09'510.0
2018-Jun-14 18:31N 43°29' E 010°10'5 9.8
2018-Jun-14 18:00N 43°32' E 010°16'3 5.7
2018-Jun-14 17:30N 43°34' E 010°18'0 0.9
2018-Jun-14 17:00N 43°34' E 010°18'0 0.0
2018-Jun-14 16:30N 43°34' E 010°18'0 0.0
2018-Jun-14 16:00N 43°34' E 010°18'0 0.0
2018-Jun-14 15:24N 43°34' E 010°18'0 0.0
2018-Jun-14 15:00N 43°34' E 010°18'0 0.0
2018-Jun-14 14:30N 43°34' E 010°18'0 0.0
2018-Jun-14 14:00N 43°34' E 010°18'0 0.0
2018-Jun-14 13:24N 43°34' E 010°18'0 0.0
2018-Jun-14 12:54N 43°34' E 010°18'0 0.0
2018-Jun-14 12:30N 43°34' E 010°18'0 0.0
2018-Jun-14 11:54N 43°34' E 010°18'0 0.0
2018-Jun-14 11:30N 43°34' E 010°18'0 0.0
2018-Jun-14 11:00N 43°34' E 010°18'0 0.0
2018-Jun-14 10:30N 43°34' E 010°18'0 0.0
2018-Jun-14 10:00N 43°34' E 010°18'0 0.0
2018-Jun-14 09:30N 43°34' E 010°18'0 0.0
2018-Jun-14 09:00N 43°34' E 010°18'0 0.0
2018-Jun-14 08:30N 43°34' E 010°18'0 0.0
2018-Jun-14 08:00N 43°34' E 010°18'0 0.0
2018-Jun-14 07:30N 43°34' E 010°18'0 0.0
2018-Jun-14 07:00N 43°34' E 010°18'0 0.0
2018-Jun-14 06:30N 43°34' E 010°18'0 0.0
2018-Jun-14 06:00N 43°34' E 010°18'0 0.0
2018-Jun-14 05:30N 43°34' E 010°18'0 0.0
2018-Jun-14 04:54N 43°34' E 010°18'0 0.0
2018-Jun-14 04:30N 43°34' E 010°18'0 0.0
2018-Jun-14 04:00N 43°34' E 010°18'0 0.0
2018-Jun-14 03:24N 43°34' E 010°18'0 0.0
2018-Jun-14 03:00N 43°34' E 010°18'0 0.0
2018-Jun-14 02:28N 43°34' E 010°18'0 0.0
2018-Jun-14 01:58N 43°34' E 010°18'0 0.0
2018-Jun-14 01:28N 43°34' E 010°18'0 0.0
2018-Jun-14 00:58N 43°34' E 010°18'0 0.0
2018-Jun-14 00:28N 43°34' E 010°18'0 0.0
2018-Jun-13 23:58N 43°34' E 010°18'0 0.0
2018-Jun-13 23:28N 43°34' E 010°18'0 0.0
2018-Jun-13 22:58N 43°34' E 010°18'0 0.0
2018-Jun-13 22:28N 43°34' E 010°18'0 0.0
2018-Jun-13 21:58N 43°34' E 010°18'0 0.0
2018-Jun-13 21:28N 43°34' E 010°18'0 0.0
2018-Jun-13 21:00N 43°34' E 010°18'2 3.1
2018-Jun-13 20:30N 43°33' E 010°18'3 6.3
2018-Jun-13 20:00N 43°31' E 010°15'3 6.9
2018-Jun-13 19:30N 43°28' E 010°11'510.6
2018-Jun-13 19:00N 43°24' E 010°06'510.8
2018-Jun-13 18:30N 43°20' E 010°02'510.6
2018-Jun-13 18:00N 43°19' E 009°55'611.5
2018-Jun-13 17:30N 43°19' E 009°47'611.7
2018-Jun-13 17:00N 43°23' E 009°41'611.8
2018-Jun-13 16:30N 43°28' E 009°36'611.6
2018-Jun-13 16:00N 43°32' E 009°30'611.5
2018-Jun-13 15:30N 43°36' E 009°25'611.4
2018-Jun-13 15:00N 43°41' E 009°21'611.1
2018-Jun-13 14:30N 43°45' E 009°16'611.2
2018-Jun-13 14:00N 43°50' E 009°12'611.6
2018-Jun-13 13:30N 43°55' E 009°07'611.5
2018-Jun-13 13:00N 43°59' E 009°02'611.4
2018-Jun-13 12:30N 44°04' E 008°57'611.1
2018-Jun-13 12:00N 44°08' E 008°53'510.9
2018-Jun-13 11:30N 44°13' E 008°49'611.1
2018-Jun-13 11:00N 44°17' E 008°44'5 9.8
2018-Jun-13 10:30N 44°22' E 008°42'4 8.6
2018-Jun-13 10:00N 44°25' E 008°47'0 0.3
2018-Jun-13 09:25N 44°25' E 008°47'0 0.0
2018-Jun-13 08:55N 44°25' E 008°47'0 0.0
2018-Jun-13 08:19N 44°25' E 008°47'0 0.0
2018-Jun-13 07:55N 44°25' E 008°47'0 0.0
2018-Jun-13 07:25N 44°25' E 008°47'0 0.0
2018-Jun-13 06:55N 44°25' E 008°47'0 0.0
2018-Jun-13 06:25N 44°25' E 008°47'0 0.0
2018-Jun-13 05:55N 44°25' E 008°47'0 0.0
2018-Jun-13 05:25N 44°25' E 008°47'0 0.0
2018-Jun-13 04:55N 44°25' E 008°47'0 0.0
2018-Jun-13 04:25N 44°25' E 008°47'0 0.0
2018-Jun-13 03:55N 44°25' E 008°47'0 0.0
2018-Jun-13 03:25N 44°25' E 008°47'0 0.0
2018-Jun-13 02:55N 44°25' E 008°47'0 0.0
2018-Jun-13 02:25N 44°25' E 008°47'0 0.0
2018-Jun-13 01:55N 44°25' E 008°47'0 0.0
2018-Jun-13 01:25N 44°25' E 008°47'0 0.0
2018-Jun-13 00:55N 44°25' E 008°47'0 0.0
2018-Jun-13 00:25N 44°25' E 008°47'0 0.0
2018-Jun-12 23:55N 44°25' E 008°47'0 0.0
2018-Jun-12 23:19N 44°25' E 008°47'0 0.0
2018-Jun-12 22:49N 44°25' E 008°47'0 0.0
2018-Jun-12 22:25N 44°25' E 008°47'0 0.0
2018-Jun-12 21:55N 44°25' E 008°47'0 0.0
2018-Jun-12 21:25N 44°25' E 008°47'0 0.0
2018-Jun-12 20:55N 44°25' E 008°47'0 0.0
2018-Jun-12 20:25N 44°25' E 008°47'0 0.0
2018-Jun-12 19:55N 44°25' E 008°47'0 0.0
2018-Jun-12 19:25N 44°25' E 008°47'0 0.0
2018-Jun-12 18:55N 44°25' E 008°47'0 0.0
2018-Jun-12 18:25N 44°25' E 008°47'0 0.0
2018-Jun-12 17:55N 44°25' E 008°47'0 0.0
2018-Jun-12 17:25N 44°25' E 008°47'0 0.0
2018-Jun-12 16:55N 44°25' E 008°47'0 0.0
2018-Jun-12 16:25N 44°25' E 008°47'0 0.0
2018-Jun-12 15:55N 44°25' E 008°47'0 0.0
2018-Jun-12 15:29N 44°25' E 008°47'0 0.0
2018-Jun-12 14:55N 44°25' E 008°47'0 0.0
2018-Jun-12 14:25N 44°25' E 008°47'0 0.0
2018-Jun-12 13:55N 44°25' E 008°47'0 0.0
2018-Jun-12 13:25N 44°25' E 008°47'0 0.0
2018-Jun-12 12:55N 44°25' E 008°47'0 0.0
2018-Jun-12 12:25N 44°25' E 008°47'0 0.0
2018-Jun-12 11:55N 44°25' E 008°47'0 0.0
2018-Jun-12 11:25N 44°25' E 008°47'0 0.0
2018-Jun-12 10:55N 44°25' E 008°47'0 0.0
2018-Jun-12 10:28N 44°25' E 008°47'0 0.0
2018-Jun-12 09:58N 44°25' E 008°47'0 0.0
2018-Jun-12 09:28N 44°25' E 008°47'0 0.1
2018-Jun-12 09:00N 44°25' E 008°47'1 2.7
2018-Jun-12 08:30N 44°25' E 008°45'1 1.1
2018-Jun-12 07:57N 44°24' E 008°45'0 0.0
2018-Jun-12 07:27N 44°24' E 008°45'0 0.1
2018-Jun-12 06:57N 44°24' E 008°45'0 0.0
2018-Jun-12 06:27N 44°24' E 008°45'0 0.0
2018-Jun-12 05:57N 44°24' E 008°45'0 0.0
2018-Jun-12 05:21N 44°24' E 008°45'0 0.0
2018-Jun-12 04:51N 44°24' E 008°45'0 0.0
2018-Jun-12 04:27N 44°24' E 008°45'0 0.0
2018-Jun-12 03:57N 44°24' E 008°45'0 0.2
2018-Jun-12 03:27N 44°24' E 008°46'0 0.2
2018-Jun-12 02:57N 44°24' E 008°46'0 0.1
2018-Jun-12 02:27N 44°24' E 008°46'0 0.0
2018-Jun-12 01:57N 44°24' E 008°46'0 0.0
2018-Jun-12 01:27N 44°24' E 008°46'0 0.0
2018-Jun-12 00:57N 44°24' E 008°46'  

Dump ship's entire track history